Terminal Aerodrome Forecast
Issued by NWS

Home | Current Version | Previous Version | Text Only | Print | Product List | Glossary On
Versions: 1 2 3 4 5 6 7 8 9 10 11 12 13 14
000
FTUS42 TJSJ 272300 RRA
TAFJSJ
TAF
TJSJ 272339Z 2800/2824 09010KT P6SM -RA FEW028 SCT040 BKN070
     FM280330 09009KT P6SM VCSH SCT025 BKN050 PROB30 2809/2813 -SHRA
      BKN025
     FM281430 09017G24KT P6SM FEW030 SCT070=

USA.gov is the U.S. government's official web portal to all federal, state and local government web resources and services.